Time;durP1;ratioP1;P1;durP2;ratioP2;P2;SDS_P1;SDS_P2;PMS_P1;PMS_P2;Temp;Humidity;BMP_temperature;BMP_pressure;BME280_temperature;BME280_humidity;BME280_pressure;Samples;Min_cycle;Max_cycle;Signal;HPM_P1;HPM_P2
2022/09/12 00:00:45;;;;;;;9.05;8.25;;;12.20;99.90;;;;;;4900894;29;20047;-76
2022/09/12 00:03:10;;;;;;;8.82;8.02;;;12.20;99.90;;;;;;4900221;29;20039;-76
2022/09/12 00:05:44;;;;;;;9.63;8.73;;;12.20;99.90;;;;;;4907962;29;20046;-76
2022/09/12 00:08:10;;;;;;;8.93;7.90;;;12.20;99.90;;;;;;4918618;29;20131;-76
2022/09/12 00:10:38;;;;;;;7.88;7.18;;;12.10;99.90;;;;;;4901915;29;20051;-76
2022/09/12 00:13:04;;;;;;;7.88;6.22;;;12.20;99.90;;;;;;4899629;29;20418;-76
2022/09/12 00:15:30;;;;;;;7.43;6.72;;;12.10;99.90;;;;;;4899917;29;20036;-76
2022/09/12 00:17:55;;;;;;;9.95;8.45;;;12.10;99.90;;;;;;4899646;29;20071;-76
2022/09/12 00:20:21;;;;;;;9.23;8.32;;;12.00;99.90;;;;;;4905818;29;20521;-76
2022/09/12 00:22:46;;;;;;;9.65;8.50;;;12.00;99.90;;;;;;4915314;29;20048;-76
2022/09/12 00:25:12;;;;;;;11.38;8.75;;;12.00;99.90;;;;;;4904334;29;20043;-76
2022/09/12 00:27:37;;;;;;;9.88;8.88;;;12.00;99.90;;;;;;4918288;29;20051;-76
2022/09/12 00:30:04;;;;;;;9.02;8.13;;;12.00;99.90;;;;;;4918476;29;20414;-76
2022/09/12 00:32:30;;;;;;;8.80;7.90;;;12.00;99.90;;;;;;4918404;29;20109;-76
2022/09/12 00:34:56;;;;;;;9.30;8.27;;;12.00;99.90;;;;;;4913927;29;20094;-76
2022/09/12 00:37:22;;;;;;;9.40;8.60;;;12.00;99.90;;;;;;4882105;29;20040;-76
2022/09/12 00:39:47;;;;;;;10.85;9.82;;;11.90;99.90;;;;;;4900446;29;20087;-76
2022/09/12 00:42:13;;;;;;;10.15;9.10;;;11.90;99.90;;;;;;4918160;29;20043;-76
2022/09/12 00:44:44;;;;;;;10.38;9.30;;;11.90;99.90;;;;;;4918279;29;20379;-76
2022/09/12 00:47:25;;;;;;;12.52;11.32;;;11.90;99.90;;;;;;4902116;29;20039;-76
2022/09/12 00:49:59;;;;;;;12.13;10.93;;;11.90;99.90;;;;;;4892558;29;20553;-76
2022/09/12 00:52:32;;;;;;;13.38;10.63;;;11.90;99.90;;;;;;4917972;29;20055;-77
2022/09/12 00:55:13;;;;;;;8.45;7.30;;;11.90;99.90;;;;;;4918119;29;20043;-77
2022/09/12 00:57:59;;;;;;;8.73;7.35;;;11.90;99.90;;;;;;4917817;29;20051;-76
2022/09/12 01:00:26;;;;;;;10.27;7.55;;;11.90;99.90;;;;;;4911314;29;20107;-76
2022/09/12 01:03:06;;;;;;;9.95;8.90;;;11.90;99.90;;;;;;4917399;29;20036;-76
2022/09/12 01:05:35;;;;;;;12.38;10.02;;;11.80;99.90;;;;;;4921956;29;20041;-76
2022/09/12 01:08:02;;;;;;;11.48;10.27;;;11.80;99.90;;;;;;4886642;29;20066;-76
2022/09/12 01:10:29;;;;;;;11.30;10.02;;;11.70;99.90;;;;;;4913226;29;20044;-76
2022/09/12 01:12:54;;;;;;;12.52;11.32;;;11.70;99.90;;;;;;4902042;29;20042;-76
2022/09/12 01:15:20;;;;;;;13.40;11.93;;;11.70;99.90;;;;;;4917999;29;20048;-76
2022/09/12 01:18:07;;;;;;;14.60;13.05;;;11.70;99.90;;;;;;4917692;29;20035;-76
2022/09/12 01:20:42;;;;;;;14.77;13.30;;;11.70;99.90;;;;;;4917438;29;20056;-76
2022/09/12 01:23:51;;;;;;;13.20;11.90;;;11.80;99.90;;;;;;4911345;29;20036;-76
2022/09/12 01:26:49;;;;;;;16.67;13.85;;;11.80;99.90;;;;;;4892675;29;20377;-76
2022/09/12 01:29:24;;;;;;;16.23;14.48;;;11.80;99.90;;;;;;4893289;29;20218;-76
2022/09/12 01:32:14;;;;;;;14.93;13.32;;;11.80;99.90;;;;;;4898221;29;20035;-76
2022/09/12 01:34:48;;;;;;;17.75;14.98;;;11.80;99.90;;;;;;4898921;29;20048;-76
2022/09/12 01:37:17;;;;;;;19.13;16.05;;;11.80;99.90;;;;;;4901943;29;20039;-76
2022/09/12 01:40:04;;;;;;;20.42;17.02;;;11.90;99.90;;;;;;4897526;29;20482;-77
2022/09/12 01:42:35;;;;;;;20.65;17.23;;;11.90;99.90;;;;;;4890927;29;20047;-76
2022/09/12 01:45:27;;;;;;;22.08;17.25;;;11.90;99.90;;;;;;4897898;29;20058;-76
2022/09/12 01:48:20;;;;;;;22.38;18.02;;;12.00;99.90;;;;;;4866542;29;20394;-76
2022/09/12 01:50:53;;;;;;;25.00;19.80;;;12.00;99.90;;;;;;4908823;29;20051;-76
2022/09/12 01:53:24;;;;;;;;;;;12.00;99.90;;;;;;4898750;29;20051;-76
2022/09/12 01:56:11;;;;;;;24.40;17.98;;;12.00;99.90;;;;;;4883013;29;20346;-77
2022/09/12 01:59:02;;;;;;;28.00;21.27;;;12.10;99.90;;;;;;4898390;29;20097;-76
2022/09/12 02:01:32;;;;;;;29.15;22.27;;;12.10;99.90;;;;;;4897640;29;20043;-76
2022/09/12 02:04:07;;;;;;;30.90;20.73;;;12.10;99.90;;;;;;4892495;29;20391;-76
2022/09/12 02:07:00;;;;;;;29.17;22.17;;;12.20;99.90;;;;;;4908779;29;20043;-76
2022/09/12 02:09:36;;;;;;;30.40;22.80;;;12.20;99.90;;;;;;4898497;29;20055;-76
2022/09/12 02:12:08;;;;;;;26.73;20.52;;;12.20;99.90;;;;;;4886644;29;20678;-76
2022/09/12 02:14:40;;;;;;;27.70;21.50;;;12.30;99.90;;;;;;4916948;29;20043;-76
2022/09/12 02:17:15;;;;;;;28.30;21.85;;;12.30;99.90;;;;;;4897414;29;20094;-76
2022/09/12 02:19:47;;;;;;;30.45;22.70;;;12.30;99.90;;;;;;4882739;29;20047;-76
2022/09/12 02:22:17;;;;;;;32.53;23.00;;;12.20;99.90;;;;;;4897629;29;20055;-76
2022/09/12 02:24:49;;;;;;;32.58;23.77;;;12.30;99.90;;;;;;4915551;29;20104;-76
2022/09/12 02:27:23;;;;;;;33.53;24.02;;;12.30;99.90;;;;;;4901057;29;20506;-76
2022/09/12 02:29:49;;;;;;;31.67;23.33;;;12.30;99.90;;;;;;4905112;29;20084;-76
2022/09/12 02:32:14;;;;;;;29.45;21.27;;;12.30;99.90;;;;;;4897387;29;20051;-76
2022/09/12 02:35:02;;;;;;;31.80;24.20;;;12.30;99.90;;;;;;4915154;29;20055;-76
2022/09/12 02:37:51;;;;;;;31.80;23.38;;;12.40;99.90;;;;;;4903337;29;20039;-76
2022/09/12 02:40:17;;;;;;;30.50;23.38;;;12.30;99.90;;;;;;4919711;29;20574;-76
2022/09/12 02:42:43;;;;;;;29.80;22.42;;;12.30;99.90;;;;;;4917418;29;20040;-76
2022/09/12 02:45:11;;;;;;;29.42;22.85;;;12.30;99.90;;;;;;4912433;29;20062;-76
2022/09/12 02:47:54;;;;;;;32.75;24.45;;;12.30;99.90;;;;;;4920096;29;20051;-76
2022/09/12 02:50:19;;;;;;;30.75;22.90;;;12.30;99.90;;;;;;4920701;29;20094;-76
2022/09/12 02:52:45;;;;;;;29.45;23.15;;;12.30;99.90;;;;;;4920248;29;20122;-77
2022/09/12 02:55:13;;;;;;;32.15;24.08;;;12.30;99.90;;;;;;4912772;29;20074;-77
2022/09/12 02:57:39;;;;;;;31.50;23.23;;;12.40;99.90;;;;;;4912039;29;20183;-77
2022/09/12 03:00:06;;;;;;;29.17;22.83;;;12.40;99.90;;;;;;4914347;29;20131;-77
2022/09/12 03:03:00;;;;;;;30.75;22.38;;;12.40;99.90;;;;;;4916927;29;20032;-77
2022/09/12 03:05:36;;;;;;;30.13;21.55;;;12.40;99.90;;;;;;4920263;29;20039;-77
2022/09/12 03:08:31;;;;;;;28.30;22.67;;;12.40;99.90;;;;;;4919846;29;20040;-77
2022/09/12 03:11:05;;;;;;;26.98;22.02;;;12.30;99.90;;;;;;4903783;29;20036;-77
2022/09/12 03:13:34;;;;;;;26.95;21.70;;;12.30;99.90;;;;;;4913595;29;20049;-77
2022/09/12 03:16:05;;;;;;;27.92;21.15;;;12.30;99.90;;;;;;4922863;29;20038;-77
2022/09/12 03:18:58;;;;;;;27.52;19.92;;;12.20;99.90;;;;;;4911245;29;20447;-77
2022/09/12 03:21:57;;;;;;;26.65;20.67;;;12.20;99.90;;;;;;4915277;29;20139;-77
2022/09/12 03:24:31;;;;;;;22.02;18.05;;;12.20;99.90;;;;;;4882146;29;20123;-77
2022/09/12 03:27:24;;;;;;;23.80;19.10;;;12.10;99.90;;;;;;4911201;29;20113;-77
2022/09/12 03:29:51;;;;;;;23.40;18.77;;;12.10;99.90;;;;;;4911648;29;20414;-77
2022/09/12 03:32:17;;;;;;;20.33;17.60;;;12.00;99.90;;;;;;4919834;29;20176;-77
2022/09/12 03:34:42;;;;;;;20.90;17.15;;;12.00;99.90;;;;;;4904695;29;20127;-77
2022/09/12 03:37:08;;;;;;;24.52;18.70;;;12.00;99.90;;;;;;4912679;29;20044;-77
2022/09/12 03:39:34;;;;;;;19.75;17.08;;;11.90;99.90;;;;;;4919456;29;20087;-77
2022/09/12 03:41:59;;;;;;;22.15;17.50;;;12.00;99.90;;;;;;4919276;29;20044;-77
2022/09/12 03:44:25;;;;;;;24.85;19.38;;;11.90;99.90;;;;;;4919309;29;20047;-77
2022/09/12 03:46:51;;;;;;;26.05;18.92;;;11.80;99.90;;;;;;4912171;29;20032;-77
2022/09/12 03:49:16;;;;;;;26.15;18.75;;;11.80;99.90;;;;;;4906284;29;20044;-77
2022/09/12 03:51:42;;;;;;;28.25;20.02;;;11.90;99.90;;;;;;4900187;29;20036;-77
2022/09/12 03:54:09;;;;;;;25.05;19.42;;;11.90;99.90;;;;;;4900580;29;20079;-77
2022/09/12 03:56:36;;;;;;;23.67;18.90;;;11.80;99.90;;;;;;4900329;29;20043;-77
2022/09/12 03:59:05;;;;;;;24.15;19.15;;;11.80;99.90;;;;;;4918664;29;20126;-77
2022/09/12 04:01:31;;;;;;;22.00;18.13;;;11.80;99.90;;;;;;4913183;29;20062;-77
2022/09/12 04:03:56;;;;;;;25.95;19.10;;;11.80;99.90;;;;;;4900011;29;20487;-77
2022/09/12 04:06:22;;;;;;;25.10;18.73;;;11.80;99.90;;;;;;4915376;29;20044;-77
2022/09/12 04:08:52;;;;;;;24.42;19.23;;;11.80;99.90;;;;;;4917980;29;20050;-78
2022/09/12 04:11:19;;;;;;;23.17;18.38;;;11.80;99.90;;;;;;4914349;29;20103;-77
2022/09/12 04:13:45;;;;;;;25.92;20.10;;;11.80;99.90;;;;;;4899631;29;20051;-77
2022/09/12 04:16:12;;;;;;;24.27;19.13;;;11.80;99.90;;;;;;4899913;29;20047;-77
2022/09/12 04:18:38;;;;;;;26.20;19.75;;;11.80;99.90;;;;;;4892729;29;20054;-77
2022/09/12 04:21:07;;;;;;;26.35;18.58;;;11.70;99.90;;;;;;4918648;29;20050;-77
2022/09/12 04:23:33;;;;;;;24.92;18.98;;;11.80;99.90;;;;;;4918639;29;20082;-77
2022/09/12 04:26:00;;;;;;;20.90;16.88;;;11.70;99.90;;;;;;4905190;29;20517;-77
2022/09/12 04:28:27;;;;;;;21.38;16.77;;;11.70;99.90;;;;;;4914416;29;20054;-77
2022/09/12 04:30:53;;;;;;;21.35;17.92;;;11.70;99.90;;;;;;4918363;29;20107;-77
2022/09/12 04:33:20;;;;;;;24.85;18.98;;;11.70;99.90;;;;;;4918526;29;20039;-77
2022/09/12 04:35:46;;;;;;;21.15;16.98;;;11.70;99.90;;;;;;4918676;29;20062;-77
2022/09/12 04:38:11;;;;;;;23.48;18.33;;;11.70;99.90;;;;;;4908314;29;20479;-77
2022/09/12 04:40:37;;;;;;;23.58;18.13;;;11.60;99.90;;;;;;4901467;29;20040;-77
2022/09/12 04:43:03;;;;;;;21.67;17.20;;;11.60;99.90;;;;;;4899432;29;20040;-77
2022/09/12 04:45:29;;;;;;;24.10;18.17;;;11.60;99.90;;;;;;4899352;29;20040;-77
2022/09/12 04:47:54;;;;;;;22.40;17.17;;;11.60;99.90;;;;;;4917852;29;20062;-77
2022/09/12 04:50:20;;;;;;;24.05;17.70;;;11.60;99.90;;;;;;4917812;29;20106;-77
2022/09/12 04:52:51;;;;;;;25.45;19.02;;;11.60;99.90;;;;;;4903154;29;20052;-77
2022/09/12 04:55:16;;;;;;;25.38;19.30;;;11.60;99.90;;;;;;4912837;29;20036;-77
2022/09/12 04:57:42;;;;;;;22.95;18.65;;;11.70;99.90;;;;;;4899114;29;20878;-77
2022/09/12 05:00:13;;;;;;;28.63;19.67;;;11.70;99.90;;;;;;4897734;29;20039;-78
2022/09/12 05:02:40;;;;;;;30.02;20.48;;;11.70;99.90;;;;;;4906959;29;20044;-77
2022/09/12 05:05:06;;;;;;;25.40;18.85;;;11.70;99.90;;;;;;4911347;29;20040;-77
2022/09/12 05:07:31;;;;;;;26.35;19.25;;;11.80;99.90;;;;;;4898259;29;20037;-77
2022/09/12 05:09:57;;;;;;;30.50;20.25;;;11.80;99.90;;;;;;4917645;29;20046;-77
2022/09/12 05:12:23;;;;;;;37.53;19.02;;;11.80;99.90;;;;;;4901271;29;20051;-78
2022/09/12 05:14:49;;;;;;;27.35;20.25;;;11.80;99.90;;;;;;4899223;29;20039;-79
2022/09/12 05:17:15;;;;;;;32.67;21.92;;;11.90;99.90;;;;;;4881742;29;20135;-77
2022/09/12 05:19:40;;;;;;;30.75;20.52;;;11.90;99.90;;;;;;4903329;29;20553;-78
2022/09/12 05:22:06;;;;;;;31.80;21.52;;;12.00;99.90;;;;;;4886654;29;20038;-78
2022/09/12 05:24:32;;;;;;;29.75;20.70;;;12.00;99.90;;;;;;4913717;29;20071;-78
2022/09/12 05:26:57;;;;;;;31.38;21.17;;;12.00;99.90;;;;;;4895581;29;20032;-78
2022/09/12 05:29:24;;;;;;;36.78;23.40;;;12.10;99.90;;;;;;4893572;29;20158;-77
2022/09/12 05:31:50;;;;;;;28.35;20.42;;;12.10;99.90;;;;;;4905769;29;20050;-77
2022/09/12 05:34:17;;;;;;;32.33;21.27;;;12.10;99.90;;;;;;4917861;29;20402;-77
2022/09/12 05:36:42;;;;;;;31.60;22.58;;;12.20;99.90;;;;;;4904462;29;20482;-76
2022/09/12 05:39:08;;;;;;;33.08;22.27;;;12.20;99.90;;;;;;4898366;29;20079;-76
2022/09/12 05:41:34;;;;;;;33.08;23.10;;;12.20;99.90;;;;;;4897420;29;20040;-76
2022/09/12 05:44:02;;;;;;;31.05;21.60;;;12.30;99.90;;;;;;4898433;29;20135;-76
2022/09/12 05:46:31;;;;;;;34.38;21.83;;;12.30;99.90;;;;;;4898663;29;20096;-76
2022/09/12 05:49:01;;;;;;;37.80;23.65;;;12.30;99.90;;;;;;4898070;29;20523;-76
2022/09/12 05:51:30;;;;;;;37.85;23.52;;;12.40;99.90;;;;;;4896987;29;20143;-76
2022/09/12 05:53:58;;;;;;;33.08;23.00;;;12.40;99.90;;;;;;4891189;29;20044;-75
2022/09/12 05:56:26;;;;;;;36.35;22.63;;;12.50;99.90;;;;;;4898746;29;20054;-76
2022/09/12 05:59:00;;;;;;;35.00;23.08;;;12.50;99.90;;;;;;4898231;29;20044;-77
2022/09/12 06:01:27;;;;;;;35.55;24.52;;;12.60;99.90;;;;;;4897363;29;20095;-77
2022/09/12 06:03:55;;;;;;;31.17;21.30;;;12.60;99.90;;;;;;4908227;29;20046;-77
2022/09/12 06:06:23;;;;;;;36.28;23.70;;;12.70;99.90;;;;;;4907637;29;20194;-78
2022/09/12 06:08:52;;;;;;;38.03;24.58;;;12.70;99.90;;;;;;4894822;29;20503;-77
2022/09/12 06:11:20;;;;;;;36.22;23.60;;;12.70;99.90;;;;;;4904777;29;20134;-76
2022/09/12 06:13:46;;;;;;;39.25;24.58;;;12.80;99.90;;;;;;4917769;29;20044;-77
2022/09/12 06:16:15;;;;;;;32.95;22.50;;;12.80;99.90;;;;;;4901389;29;20044;-78
2022/09/12 06:18:45;;;;;;;37.72;23.83;;;12.80;99.90;;;;;;4892789;29;20108;-77
2022/09/12 06:21:11;;;;;;;34.40;23.90;;;12.90;99.90;;;;;;4905104;29;20392;-77
2022/09/12 06:23:38;;;;;;;36.58;25.00;;;12.90;99.90;;;;;;4920810;29;20036;-77
2022/09/12 06:26:05;;;;;;;37.80;24.58;;;13.00;99.90;;;;;;4920746;29;20047;-77
2022/09/12 06:28:33;;;;;;;38.90;25.13;;;13.00;99.90;;;;;;4920484;29;20047;-77
2022/09/12 06:31:05;;;;;;;36.13;23.20;;;13.10;99.90;;;;;;4920634;29;20054;-77
2022/09/12 06:33:36;;;;;;;38.08;25.08;;;13.10;99.90;;;;;;4920736;29;20047;-77
2022/09/12 06:36:06;;;;;;;37.70;24.17;;;13.20;99.90;;;;;;4920610;29;20036;-77
2022/09/12 06:38:32;;;;;;;36.17;24.17;;;13.20;99.90;;;;;;4920310;29;20036;-77
2022/09/12 06:40:59;;;;;;;37.38;24.60;;;13.20;99.90;;;;;;4920400;29;20395;-77
2022/09/12 06:43:25;;;;;;;39.90;26.15;;;13.30;99.90;;;;;;4920488;29;20074;-77
2022/09/12 06:45:51;;;;;;;35.08;24.63;;;13.30;99.90;;;;;;4920754;29;20048;-77
2022/09/12 06:48:17;;;;;;;41.33;26.42;;;13.40;99.90;;;;;;4920108;29;20036;-77
2022/09/12 06:50:42;;;;;;;42.03;26.75;;;13.40;99.90;;;;;;4920176;29;20051;-77
2022/09/12 06:53:08;;;;;;;40.50;26.08;;;13.50;99.90;;;;;;4920371;29;20206;-77
2022/09/12 06:55:34;;;;;;;40.47;26.42;;;13.50;99.90;;;;;;4920325;29;20521;-76
2022/09/12 06:57:59;;;;;;;40.03;25.75;;;13.60;99.90;;;;;;4919976;29;20078;-76
2022/09/12 07:00:25;;;;;;;40.42;26.02;;;13.60;99.90;;;;;;4920058;29;20487;-76
2022/09/12 07:02:57;;;;;;;42.83;26.85;;;13.70;99.90;;;;;;4920205;29;20054;-76
2022/09/12 07:05:23;;;;;;;43.60;27.48;;;13.70;99.90;;;;;;4920237;29;20123;-77
2022/09/12 07:07:49;;;;;;;42.42;26.85;;;13.80;99.90;;;;;;4919843;29;20131;-77
2022/09/12 07:10:14;;;;;;;39.63;27.30;;;13.80;99.90;;;;;;4920021;29;20447;-77
2022/09/12 07:12:40;;;;;;;37.60;25.33;;;13.90;99.90;;;;;;4920022;29;20040;-77
2022/09/12 07:15:06;;;;;;;42.15;26.85;;;14.00;99.90;;;;;;4919967;29;20102;-77
2022/09/12 07:17:31;;;;;;;41.28;25.60;;;14.00;99.90;;;;;;4919921;29;20051;-76
2022/09/12 07:19:57;;;;;;;44.58;27.15;;;14.10;99.90;;;;;;4919697;29;20046;-76
2022/09/12 07:22:22;;;;;;;42.95;27.98;;;14.20;99.90;;;;;;4919104;29;20491;-76
2022/09/12 07:24:49;;;;;;;41.33;27.15;;;14.20;99.90;;;;;;4919150;29;20040;-76
2022/09/12 07:27:14;;;;;;;41.40;26.05;;;14.30;99.90;;;;;;4919496;29;20043;-76
2022/09/12 07:29:40;;;;;;;42.13;26.40;;;14.30;99.90;;;;;;4919648;29;20501;-76
2022/09/12 07:32:06;;;;;;;39.35;25.90;;;14.40;99.90;;;;;;4919835;29;20513;-77
2022/09/12 07:34:32;;;;;;;41.90;26.80;;;14.50;99.90;;;;;;4919587;29;20071;-77
2022/09/12 07:36:58;;;;;;;41.17;26.48;;;14.60;99.90;;;;;;4919316;29;20045;-77
2022/09/12 07:39:23;;;;;;;39.92;26.33;;;14.60;99.90;;;;;;4919294;29;20044;-77
2022/09/12 07:41:49;;;;;;;39.45;26.73;;;14.60;99.90;;;;;;4919493;29;20103;-77
2022/09/12 07:44:14;;;;;;;38.85;25.88;;;14.70;99.90;;;;;;4919685;29;20043;-77
2022/09/12 07:46:40;;;;;;;39.25;26.77;;;14.80;99.90;;;;;;4919371;29;20043;-76
2022/09/12 07:49:06;;;;;;;39.75;25.52;;;14.80;99.90;;;;;;4919147;29;20075;-76
2022/09/12 07:51:32;;;;;;;40.42;26.85;;;15.00;99.90;;;;;;4919367;29;20429;-77
2022/09/12 07:53:58;;;;;;;38.20;26.35;;;15.00;99.90;;;;;;4919228;29;20130;-76
2022/09/12 07:56:24;;;;;;;39.20;26.80;;;15.10;99.90;;;;;;4919196;29;20047;-76
2022/09/12 07:58:50;;;;;;;41.10;27.85;;;15.10;99.90;;;;;;4919295;29;20036;-76
2022/09/12 08:01:22;;;;;;;39.75;26.85;;;15.30;99.90;;;;;;4903305;29;20039;-76
2022/09/12 08:03:51;;;;;;;36.75;27.13;;;15.40;99.90;;;;;;4919153;29;20046;-76
2022/09/12 08:06:19;;;;;;;37.50;26.67;;;15.40;99.90;;;;;;4919072;29;20040;-76
2022/09/12 08:08:45;;;;;;;39.25;26.65;;;15.50;99.90;;;;;;4918594;29;20046;-76
2022/09/12 08:11:13;;;;;;;38.60;25.38;;;15.60;99.90;;;;;;4919100;29;20050;-76
2022/09/12 08:13:41;;;;;;;38.60;25.42;;;15.70;99.90;;;;;;4903404;29;20395;-76
2022/09/12 08:16:11;;;;;;;33.97;24.88;;;15.80;99.90;;;;;;4902972;29;20487;-76
2022/09/12 08:18:36;;;;;;;38.47;25.45;;;16.00;99.90;;;;;;4918747;29;20122;-76
2022/09/12 08:21:08;;;;;;;35.50;25.00;;;16.10;99.90;;;;;;4918621;29;20122;-76
2022/09/12 08:23:34;;;;;;;35.10;25.23;;;16.30;99.90;;;;;;4918948;29;20043;-76
2022/09/12 08:26:04;;;;;;;34.75;24.23;;;16.30;99.90;;;;;;4918728;29;20142;-76
2022/09/12 08:28:31;;;;;;;36.30;24.63;;;16.40;99.90;;;;;;4918447;29;20062;-76
2022/09/12 08:31:02;;;;;;;33.55;24.52;;;16.50;99.90;;;;;;4918705;29;20071;-76
2022/09/12 08:33:32;;;;;;;36.85;25.50;;;16.60;99.90;;;;;;4918474;29;20048;-77
2022/09/12 08:36:19;;;;;;;34.50;24.27;;;16.70;99.90;;;;;;4918152;29;20044;-77
2022/09/12 08:38:46;;;;;;;33.65;22.67;;;16.80;99.90;;;;;;4918131;29;20099;-76
2022/09/12 08:41:26;;;;;;;31.92;22.80;;;16.90;99.90;;;;;;4918530;29;20086;-77
2022/09/12 08:44:13;;;;;;;30.92;23.13;;;17.00;99.90;;;;;;4918410;29;20036;-76
2022/09/12 08:46:53;;;;;;;29.38;22.27;;;17.10;99.90;;;;;;4918293;29;20039;-76
2022/09/12 08:49:36;;;;;;;30.52;22.80;;;17.20;99.90;;;;;;4918377;29;20047;-76
2022/09/12 08:52:12;;;;;;;30.88;23.15;;;17.30;99.90;;;;;;4918777;29;20047;-76
2022/09/12 08:54:38;;;;;;;31.15;23.25;;;17.50;99.90;;;;;;4918643;29;20435;-76
2022/09/12 08:57:08;;;;;;;30.48;21.10;;;17.70;99.90;;;;;;4918097;29;20043;-76
2022/09/12 08:59:44;;;;;;;27.98;22.35;;;17.80;99.90;;;;;;4918194;29;20043;-76
2022/09/12 09:02:41;;;;;;;27.45;21.05;;;18.00;99.90;;;;;;4918030;29;20135;-76
2022/09/12 09:05:15;;;;;;;27.25;20.98;;;18.10;99.90;;;;;;4918197;29;20422;-76
2022/09/12 09:08:07;;;;;;;27.65;20.50;;;18.20;99.90;;;;;;4917681;29;20044;-76
2022/09/12 09:10:36;;;;;;;26.92;20.33;;;18.20;99.90;;;;;;4917887;29;20044;-76
2022/09/12 09:16:26;;;;;;;27.70;19.73;;;18.30;99.90;;;;;;4933617;29;20138;-76
2022/09/12 09:18:54;;;;;;;25.38;19.38;;;18.50;99.90;;;;;;4917533;29;20126;-76
2022/09/12 09:21:25;;;;;;;24.75;18.75;;;18.60;99.90;;;;;;4917619;29;20051;-76
2022/09/12 09:24:00;;;;;;;24.08;19.20;;;18.60;99.90;;;;;;4917750;29;20055;-76
2022/09/12 09:26:34;;;;;;;24.63;18.30;;;18.80;99.90;;;;;;4901890;29;20062;-76
2022/09/12 09:29:18;;;;;;;25.23;19.27;;;19.00;99.90;;;;;;4917747;29;20036;-76
2022/09/12 09:31:47;;;;;;;24.27;18.45;;;19.20;99.90;;;;;;4917702;29;20043;-76
2022/09/12 09:34:22;;;;;;;23.10;18.35;;;19.30;99.90;;;;;;4901939;29;20442;-76
2022/09/12 09:36:52;;;;;;;24.30;18.73;;;19.60;99.90;;;;;;4917745;29;20175;-76
2022/09/12 09:39:30;;;;;;;22.38;17.60;;;19.70;99.90;;;;;;4917312;29;20094;-76
2022/09/12 09:42:21;;;;;;;24.58;18.35;;;19.90;99.90;;;;;;4917511;29;20048;-76
2022/09/12 09:44:47;;;;;;;23.05;18.35;;;20.20;99.90;;;;;;4917697;29;20047;-74
2022/09/12 09:47:14;;;;;;;20.48;16.83;;;20.70;99.90;;;;;;4916659;29;20118;-74
2022/09/12 09:49:40;;;;;;;22.55;16.23;;;21.00;99.90;;;;;;4917555;29;20989;-74
2022/09/12 09:52:07;;;;;;;21.85;16.00;;;21.30;99.90;;;;;;4917436;29;20052;-74
2022/09/12 09:54:44;;;;;;;20.42;15.88;;;21.50;99.90;;;;;;4917280;29;20457;-74
2022/09/12 09:57:35;;;;;;;21.17;16.33;;;21.80;99.90;;;;;;4917592;29;20043;-74
2022/09/12 10:00:26;;;;;;;20.38;16.60;;;22.00;99.90;;;;;;4917143;29;20050;-74
2022/09/12 10:03:13;;;;;;;20.05;14.90;;;22.00;99.90;;;;;;4917345;29;20048;-74
2022/09/12 10:05:49;;;;;;;19.08;14.98;;;22.10;99.90;;;;;;4917353;29;20396;-74
2022/09/12 10:08:34;;;;;;;17.83;14.45;;;22.30;99.90;;;;;;4917024;29;20118;-74
2022/09/12 10:11:26;;;;;;;18.65;14.15;;;22.40;99.90;;;;;;4917202;29;20082;-74
2022/09/12 10:13:58;;;;;;;18.92;14.23;;;22.50;99.90;;;;;;4901684;29;20503;-74
2022/09/12 10:16:28;;;;;;;19.98;15.05;;;22.80;99.90;;;;;;4917344;29;20032;-74
2022/09/12 10:18:56;;;;;;;18.50;14.15;;;23.30;99.90;;;;;;4917028;29;20132;-74
2022/09/12 10:21:40;;;;;;;17.20;13.57;;;23.80;99.90;;;;;;4917193;29;20402;-74
2022/09/12 10:24:14;;;;;;;19.02;14.52;;;24.00;99.90;;;;;;4917320;29;20480;-74
2022/09/12 10:26:41;;;;;;;17.58;13.88;;;24.10;99.90;;;;;;4917275;29;20142;-74
2022/09/12 10:29:27;;;;;;;16.83;12.82;;;24.30;99.90;;;;;;4916885;29;20163;-74
2022/09/12 10:31:56;;;;;;;16.52;12.95;;;24.40;99.90;;;;;;4901392;29;20066;-74
2022/09/12 10:34:36;;;;;;;15.98;12.23;;;24.50;99.90;;;;;;4901190;29;20035;-74
2022/09/12 10:37:08;;;;;;;13.63;11.60;;;24.70;99.90;;;;;;4917063;29;20047;-74
2022/09/12 10:39:37;;;;;;;14.70;11.95;;;24.80;99.90;;;;;;4916813;29;20066;-74
2022/09/12 10:42:04;;;;;;;14.45;11.80;;;25.00;99.90;;;;;;4916856;29;20566;-74
2022/09/12 10:44:32;;;;;;;13.52;11.35;;;25.10;99.70;;;;;;4916912;29;20050;-74
2022/09/12 10:46:59;;;;;;;15.00;11.43;;;25.20;94.90;;;;;;4916856;29;20382;-74
2022/09/12 10:49:36;;;;;;;16.15;11.48;;;25.30;94.00;;;;;;4916682;29;20036;-74
2022/09/12 10:52:35;;;;;;;13.00;10.48;;;25.50;90.60;;;;;;4916868;29;20515;-74
2022/09/12 10:55:00;;;;;;;14.23;11.05;;;25.50;90.80;;;;;;4900906;29;20126;-74
2022/09/12 10:58:04;;;;;;;14.50;10.40;;;25.50;91.40;;;;;;4917391;29;20044;-74
2022/09/12 11:00:39;;;;;;;15.50;11.38;;;25.50;86.40;;;;;;4899866;29;20048;-74
2022/09/12 11:03:21;;;;;;;13.48;10.18;;;25.50;88.00;;;;;;4900527;29;20052;-74
2022/09/12 11:05:55;;;;;;;10.85;9.60;;;25.50;87.80;;;;;;4912630;29;20119;-74
2022/09/12 11:08:43;;;;;;;13.38;9.43;;;25.50;85.20;;;;;;4919870;29;20079;-74
2022/09/12 11:11:36;;;;;;;10.98;9.13;;;25.60;86.80;;;;;;4919963;29;20047;-74
2022/09/12 11:14:24;;;;;;;8.75;7.00;;;25.60;81.40;;;;;;4919919;29;20121;-74
2022/09/12 11:17:17;;;;;;;9.18;7.20;;;25.70;78.30;;;;;;4919872;29;20043;-74
2022/09/12 11:20:29;;;;;;;9.88;7.20;;;25.70;82.10;;;;;;4919608;29;20055;-74
2022/09/12 11:23:12;;;;;;;8.32;6.18;;;25.90;79.90;;;;;;4901862;29;20052;-74
2022/09/12 11:26:05;;;;;;;8.60;6.47;;;25.70;79.30;;;;;;4920035;29;20398;-74
2022/09/12 11:28:47;;;;;;;9.32;5.38;;;25.30;79.70;;;;;;4919485;29;20081;-74
2022/09/12 11:31:49;;;;;;;7.68;6.07;;;25.10;76.20;;;;;;4919597;29;20406;-74
2022/09/12 11:34:36;;;;;;;7.50;5.22;;;24.90;78.40;;;;;;4919549;29;20486;-74
2022/09/12 11:37:24;;;;;;;7.10;5.20;;;24.70;78.80;;;;;;4919231;29;20044;-74
2022/09/12 11:39:51;;;;;;;7.97;6.20;;;24.70;81.70;;;;;;4919357;29;20565;-74
2022/09/12 11:42:34;;;;;;;8.40;6.40;;;25.00;82.70;;;;;;4919439;29;20050;-74
2022/09/12 11:45:21;;;;;;;7.47;6.37;;;25.20;78.80;;;;;;4919545;29;20559;-74
2022/09/12 11:47:53;;;;;;;9.32;7.18;;;25.40;80.50;;;;;;4919161;29;20047;-74
2022/09/12 11:50:30;;;;;;;9.37;6.87;;;25.80;81.60;;;;;;4919343;29;20145;-74
2022/09/12 11:53:12;;;;;;;8.52;6.95;;;26.00;77.00;;;;;;4935100;29;20089;-74
2022/09/12 11:55:56;;;;;;;7.35;5.93;;;25.90;76.90;;;;;;4919411;29;20503;-74
2022/09/12 11:58:25;;;;;;;8.75;6.20;;;25.90;78.60;;;;;;4918992;29;20040;-74
2022/09/12 12:00:55;;;;;;;9.02;6.78;;;26.10;77.80;;;;;;4918917;29;20043;-74
2022/09/12 12:03:44;;;;;;;8.23;6.35;;;26.10;73.60;;;;;;4918994;29;20062;-74
2022/09/12 12:06:14;;;;;;;9.93;8.20;;;26.20;75.60;;;;;;4903427;29;20051;-74
2022/09/12 12:08:41;;;;;;;8.43;6.30;;;26.40;79.70;;;;;;4918376;29;20048;-74
2022/09/12 12:11:08;;;;;;;9.82;7.30;;;26.50;80.00;;;;;;4918734;29;20082;-74
2022/09/12 12:13:44;;;;;;;10.27;7.32;;;26.60;76.30;;;;;;4918888;29;20553;-74
2022/09/12 12:16:20;;;;;;;9.48;7.32;;;26.60;77.00;;;;;;4918877;29;20040;-74
2022/09/12 12:18:53;;;;;;;9.23;6.50;;;26.50;74.90;;;;;;4902682;29;20036;-74
2022/09/12 12:21:28;;;;;;;8.15;7.15;;;26.40;75.90;;;;;;4918968;29;20151;-74
2022/09/12 12:24:06;;;;;;;8.90;6.32;;;26.30;74.90;;;;;;4918664;29;20044;-74
2022/09/12 12:26:37;;;;;;;9.30;6.70;;;26.30;75.50;;;;;;4902914;29;20039;-74
2022/09/12 12:29:16;;;;;;;8.60;6.63;;;26.30;77.10;;;;;;4918384;29;20043;-74
2022/09/12 12:32:03;;;;;;;7.05;5.78;;;26.20;73.00;;;;;;4918518;29;20506;-74
2022/09/12 12:34:31;;;;;;;7.10;6.35;;;26.10;74.00;;;;;;4903030;29;20044;-74
2022/09/12 12:37:18;;;;;;;7.30;6.00;;;26.00;76.00;;;;;;4918250;29;20051;-74
2022/09/12 12:39:46;;;;;;;6.97;5.70;;;26.00;77.00;;;;;;4918075;29;20040;-74
2022/09/12 12:42:31;;;;;;;9.13;6.07;;;26.00;75.80;;;;;;4918288;29;20082;-74
2022/09/12 12:44:57;;;;;;;8.40;6.15;;;26.00;71.70;;;;;;4918285;29;20039;-74
2022/09/12 12:47:27;;;;;;;8.15;6.28;;;25.90;77.20;;;;;;4918011;29;20039;-74
2022/09/12 12:49:59;;;;;;;7.28;6.50;;;25.90;77.40;;;;;;4917950;29;20059;-74
2022/09/12 12:52:29;;;;;;;9.77;6.93;;;26.00;76.20;;;;;;4918260;29;20047;-74
2022/09/12 12:54:57;;;;;;;8.15;6.53;;;26.00;78.20;;;;;;4918343;29;20403;-74
2022/09/12 12:57:36;;;;;;;8.18;6.20;;;26.00;78.20;;;;;;4917904;29;20052;-74
2022/09/12 13:00:26;;;;;;;7.32;6.00;;;25.70;76.30;;;;;;4917979;29;20039;-74